Time;durP1;ratioP1;P1;durP2;ratioP2;P2;SDS_P1;SDS_P2;PMS_P1;PMS_P2;Temp;Humidity;BMP_temperature;BMP_pressure;BME280_temperature;BME280_humidity;BME280_pressure;Samples;Min_cycle;Max_cycle;Signal;HPM_P1;HPM_P2
2021/08/10 00:01:45;;;;;;;9.15;4.57;;;16.30;86.00;;;;;;5003673;28;20070;-74
2021/08/10 00:04:11;;;;;;;16.17;5.25;;;16.30;86.00;;;;;;5000777;28;20476;-75
2021/08/10 00:06:37;;;;;;;13.38;4.88;;;16.30;85.90;;;;;;4998382;28;20115;-73
2021/08/10 00:09:03;;;;;;;13.13;4.60;;;16.30;85.90;;;;;;5003845;28;20378;-74
2021/08/10 00:11:29;;;;;;;10.55;4.75;;;16.30;86.00;;;;;;5012819;28;20072;-72
2021/08/10 00:13:54;;;;;;;9.82;4.88;;;16.20;86.10;;;;;;5005890;28;20061;-71
2021/08/10 00:16:20;;;;;;;10.30;4.20;;;16.20;86.30;;;;;;4998673;28;20102;-71
2021/08/10 00:18:46;;;;;;;10.02;4.45;;;16.20;86.30;;;;;;4993581;28;20093;-74
2021/08/10 00:21:11;;;;;;;11.27;4.82;;;16.20;86.40;;;;;;5000898;28;20481;-72
2021/08/10 00:23:37;;;;;;;9.30;4.63;;;16.20;86.50;;;;;;5010089;28;20458;-73
2021/08/10 00:26:03;;;;;;;11.35;4.30;;;16.20;86.40;;;;;;4995351;28;20050;-73
2021/08/10 00:28:29;;;;;;;9.95;4.63;;;16.20;86.60;;;;;;4993371;28;20040;-73
2021/08/10 00:30:55;;;;;;;9.18;4.47;;;16.10;86.60;;;;;;4994119;28;20038;-73
2021/08/10 00:33:20;;;;;;;10.95;5.00;;;16.10;86.80;;;;;;4989603;28;20038;-77
2021/08/10 00:35:46;;;;;;;10.23;4.75;;;16.10;86.70;;;;;;4994496;28;20480;-75
2021/08/10 00:38:12;;;;;;;10.93;4.22;;;16.10;86.70;;;;;;4993020;28;20096;-72
2021/08/10 00:40:39;;;;;;;12.65;4.70;;;16.10;86.60;;;;;;4998197;28;20052;-75
2021/08/10 00:43:30;;;;;;;8.93;4.70;;;16.10;86.80;;;;;;4995794;28;20658;-72
2021/08/10 00:45:56;;;;;;;10.77;4.65;;;16.10;86.90;;;;;;5001842;28;20088;-73
2021/08/10 00:48:22;;;;;;;10.77;4.65;;;16.10;87.10;;;;;;5008663;28;20029;-75
2021/08/10 00:50:48;;;;;;;10.82;4.38;;;16.10;87.20;;;;;;5003165;28;20049;-72
2021/08/10 00:53:14;;;;;;;11.20;4.82;;;16.10;87.40;;;;;;4997885;28;20046;-72
2021/08/10 00:55:40;;;;;;;10.88;4.95;;;16.10;87.40;;;;;;4995948;28;20034;-73
2021/08/10 00:58:07;;;;;;;8.93;4.28;;;16.10;87.50;;;;;;4994943;28;20044;-72
2021/08/10 01:00:33;;;;;;;9.88;4.63;;;16.10;87.50;;;;;;4991289;28;20046;-73
2021/08/10 01:02:59;;;;;;;10.25;5.13;;;16.00;87.60;;;;;;4994097;28;20176;-74
2021/08/10 01:05:28;;;;;;;11.80;5.25;;;16.00;87.70;;;;;;4990498;28;20520;-77
2021/08/10 01:08:04;;;;;;;9.27;4.60;;;16.10;87.90;;;;;;4995870;28;20048;-73
2021/08/10 01:10:36;;;;;;;10.65;5.15;;;16.10;88.00;;;;;;5008743;28;20116;-73
2021/08/10 01:13:25;;;;;;;10.52;5.07;;;16.00;88.10;;;;;;5006836;28;20030;-73
2021/08/10 01:16:21;;;;;;;10.10;5.18;;;16.00;88.10;;;;;;4995530;28;20042;-72
2021/08/10 01:18:55;;;;;;;10.65;5.70;;;16.10;88.20;;;;;;4989160;28;20627;-75
2021/08/10 01:21:28;;;;;;;13.77;5.05;;;16.00;88.30;;;;;;4990555;28;20151;-76
2021/08/10 01:24:02;;;;;;;10.20;5.13;;;16.00;88.30;;;;;;5005373;28;20053;-74
2021/08/10 01:26:42;;;;;;;8.23;4.65;;;16.00;88.30;;;;;;5005000;28;20050;-74
2021/08/10 01:29:19;;;;;;;8.48;5.30;;;15.90;88.50;;;;;;4993480;28;20036;-74
2021/08/10 01:31:46;;;;;;;10.18;4.88;;;15.80;88.70;;;;;;5000042;28;20461;-73
2021/08/10 01:34:35;;;;;;;11.10;5.22;;;15.80;88.60;;;;;;5023359;28;20614;-72
2021/08/10 01:37:04;;;;;;;8.52;4.82;;;15.80;88.70;;;;;;4998113;28;20609;-73
2021/08/10 01:39:31;;;;;;;10.05;5.10;;;15.80;88.70;;;;;;4991744;28;20037;-72
2021/08/10 01:41:59;;;;;;;10.90;5.38;;;15.70;88.90;;;;;;4994362;28;20030;-72
2021/08/10 01:44:26;;;;;;;8.93;5.20;;;15.70;89.00;;;;;;4997509;28;20046;-72
2021/08/10 01:46:54;;;;;;;9.35;5.30;;;15.70;89.00;;;;;;5013283;28;20087;-72
2021/08/10 01:49:20;;;;;;;11.65;4.68;;;15.70;89.10;;;;;;5012801;28;20033;-74
2021/08/10 01:51:47;;;;;;;9.02;4.65;;;15.60;89.10;;;;;;4996762;28;20030;-74
2021/08/10 01:54:13;;;;;;;10.27;4.90;;;15.60;89.10;;;;;;4994993;28;20120;-73
2021/08/10 01:56:40;;;;;;;11.40;5.18;;;15.60;89.10;;;;;;4995114;28;20034;-73
2021/08/10 01:59:07;;;;;;;10.32;4.47;;;15.60;89.00;;;;;;5005217;28;20151;-73
2021/08/10 02:01:35;;;;;;;7.68;4.93;;;15.60;89.00;;;;;;5004783;28;20449;-73
2021/08/10 02:04:03;;;;;;;9.68;4.82;;;15.50;88.90;;;;;;5010437;28;20084;-72
2021/08/10 02:06:30;;;;;;;7.75;4.07;;;15.50;89.00;;;;;;4993823;28;20371;-75
2021/08/10 02:08:58;;;;;;;7.55;4.53;;;15.50;89.10;;;;;;5001438;28;20096;-76
2021/08/10 02:11:28;;;;;;;10.20;4.30;;;15.50;89.10;;;;;;4995158;28;20029;-76
2021/08/10 02:13:56;;;;;;;9.60;4.70;;;15.50;89.10;;;;;;4996158;28;20042;-73
2021/08/10 02:16:24;;;;;;;9.30;4.65;;;15.50;89.00;;;;;;4998896;28;20030;-77
2021/08/10 02:18:50;;;;;;;8.82;4.43;;;15.50;89.00;;;;;;4996156;28;20029;-72
2021/08/10 02:21:26;;;;;;;12.63;4.57;;;15.40;88.90;;;;;;4998103;28;20048;-77
2021/08/10 02:24:05;;;;;;;10.35;4.40;;;15.40;88.90;;;;;;4997138;28;20029;-72
2021/08/10 02:26:35;;;;;;;8.27;4.75;;;15.40;88.90;;;;;;5013512;28;20049;-76
2021/08/10 02:29:02;;;;;;;8.98;4.47;;;15.40;88.80;;;;;;4996055;28;20045;-74
2021/08/10 02:31:30;;;;;;;8.95;4.57;;;15.40;88.70;;;;;;4998038;28;20563;-72
2021/08/10 02:33:57;;;;;;;8.88;4.85;;;15.40;88.60;;;;;;4993381;28;20057;-76
2021/08/10 02:36:23;;;;;;;8.85;5.05;;;15.40;88.60;;;;;;4997922;28;20040;-73
2021/08/10 02:38:50;;;;;;;8.75;4.60;;;15.40;88.60;;;;;;4999708;28;20481;-73
2021/08/10 02:41:17;;;;;;;7.75;3.78;;;15.40;88.60;;;;;;5008464;28;20533;-74
2021/08/10 02:43:43;;;;;;;8.20;4.00;;;15.30;88.70;;;;;;4999064;28;20030;-72
2021/08/10 02:46:09;;;;;;;8.82;4.88;;;15.30;88.60;;;;;;4997921;28;20496;-72
2021/08/10 02:48:35;;;;;;;11.27;4.97;;;15.40;88.50;;;;;;4997060;28;20042;-78
2021/08/10 02:51:00;;;;;;;10.15;4.40;;;15.40;88.30;;;;;;4997996;28;20553;-78
2021/08/10 02:53:27;;;;;;;10.88;4.40;;;15.40;88.30;;;;;;5021412;28;20049;-72
2021/08/10 02:56:03;;;;;;;9.15;5.13;;;15.40;88.30;;;;;;5024592;28;20060;-76
2021/08/10 02:58:32;;;;;;;9.45;5.13;;;15.40;88.30;;;;;;5019982;28;20045;-73
2021/08/10 03:01:06;;;;;;;11.57;4.53;;;15.40;88.30;;;;;;5024015;28;20263;-75
2021/08/10 03:03:33;;;;;;;9.65;4.20;;;15.50;88.20;;;;;;5022069;28;20041;-76
2021/08/10 03:06:02;;;;;;;10.57;5.13;;;15.50;88.20;;;;;;5020927;28;20102;-72
2021/08/10 03:08:33;;;;;;;8.90;4.53;;;15.50;88.20;;;;;;5028273;28;20163;-73
2021/08/10 03:11:00;;;;;;;11.20;5.20;;;15.50;88.10;;;;;;5019457;28;20113;-72
2021/08/10 03:13:32;;;;;;;9.38;4.78;;;15.50;88.00;;;;;;5023398;28;20592;-75
2021/08/10 03:15:58;;;;;;;10.48;4.93;;;15.50;87.90;;;;;;5023557;28;20021;-73
2021/08/10 03:18:28;;;;;;;10.57;5.00;;;15.60;87.90;;;;;;5018239;28;20037;-72
2021/08/10 03:20:57;;;;;;;7.68;4.22;;;15.50;87.90;;;;;;5017863;28;20048;-76
2021/08/10 03:23:26;;;;;;;10.95;5.10;;;15.50;87.90;;;;;;5016593;28;20029;-74
2021/08/10 03:25:52;;;;;;;11.65;4.60;;;15.60;87.80;;;;;;5020170;28;20457;-73
2021/08/10 03:28:20;;;;;;;8.80;4.13;;;15.60;87.80;;;;;;5018329;28;20303;-75
2021/08/10 03:30:46;;;;;;;7.75;4.43;;;15.60;87.60;;;;;;5033264;28;20393;-77
2021/08/10 03:33:12;;;;;;;8.68;4.18;;;15.60;87.60;;;;;;5016347;28;20439;-73
2021/08/10 03:35:38;;;;;;;10.23;4.93;;;15.60;87.70;;;;;;5020236;28;20528;-72
2021/08/10 03:38:06;;;;;;;11.18;5.18;;;15.70;87.70;;;;;;5018882;28;20033;-73
2021/08/10 03:40:32;;;;;;;11.32;5.50;;;15.70;87.90;;;;;;5019358;28;20469;-73
2021/08/10 03:42:58;;;;;;;9.02;5.00;;;15.70;88.00;;;;;;5016976;28;20079;-77
2021/08/10 03:45:26;;;;;;;8.90;4.57;;;15.70;87.90;;;;;;5021279;28;20112;-74
2021/08/10 03:47:53;;;;;;;8.82;4.75;;;15.70;88.10;;;;;;5018118;28;20030;-75
2021/08/10 03:50:20;;;;;;;11.52;5.25;;;15.70;88.30;;;;;;5019500;28;20041;-72
2021/08/10 03:52:48;;;;;;;9.43;5.15;;;15.70;88.50;;;;;;5019313;28;20442;-74
2021/08/10 03:55:14;;;;;;;11.55;5.05;;;15.60;88.60;;;;;;5022032;28;20033;-73
2021/08/10 03:57:40;;;;;;;10.23;5.07;;;15.70;88.80;;;;;;5017986;28;20041;-73
2021/08/10 04:00:07;;;;;;;12.32;5.80;;;15.60;88.90;;;;;;5016098;28;20037;-75
2021/08/10 04:02:34;;;;;;;11.73;5.40;;;15.60;89.10;;;;;;4996667;28;20266;-73
2021/08/10 04:04:59;;;;;;;9.90;5.63;;;15.60;89.10;;;;;;4999834;28;20500;-76
2021/08/10 04:07:27;;;;;;;11.35;5.60;;;15.60;89.10;;;;;;4998604;28;20034;-75
2021/08/10 04:09:54;;;;;;;13.20;5.15;;;15.60;89.20;;;;;;4989865;28;20045;-73
2021/08/10 04:12:20;;;;;;;12.90;6.05;;;15.60;89.30;;;;;;4995834;28;20156;-73
2021/08/10 04:14:46;;;;;;;10.35;5.95;;;15.60;89.40;;;;;;5007299;28;20041;-76
2021/08/10 04:17:13;;;;;;;11.70;6.03;;;15.60;89.50;;;;;;5000547;28;20042;-76
2021/08/10 04:19:45;;;;;;;12.45;6.22;;;15.70;89.50;;;;;;5006372;28;20057;-78
2021/08/10 04:22:11;;;;;;;12.10;6.03;;;15.60;89.60;;;;;;4998252;28;20559;-77
2021/08/10 04:24:40;;;;;;;13.98;5.93;;;15.60;89.60;;;;;;4993316;28;20405;-75
2021/08/10 04:27:06;;;;;;;10.32;5.15;;;15.60;89.70;;;;;;5010126;28;20437;-76
2021/08/10 04:29:32;;;;;;;11.85;5.60;;;15.70;89.80;;;;;;5000683;28;20121;-76
2021/08/10 04:31:57;;;;;;;11.23;5.63;;;15.70;89.80;;;;;;5002598;28;20132;-72
2021/08/10 04:34:23;;;;;;;9.88;5.47;;;15.70;89.80;;;;;;5000507;28;20116;-72
2021/08/10 04:36:49;;;;;;;10.88;4.82;;;15.60;89.80;;;;;;5006297;28;20045;-73
2021/08/10 04:39:14;;;;;;;12.80;5.45;;;15.70;89.80;;;;;;4998654;28;20461;-73
2021/08/10 04:41:40;;;;;;;11.70;5.85;;;15.60;89.90;;;;;;4995573;28;20513;-73
2021/08/10 04:44:07;;;;;;;10.90;5.43;;;15.70;89.80;;;;;;4996346;28;20475;-76
2021/08/10 04:46:33;;;;;;;10.25;6.03;;;15.70;89.80;;;;;;4993319;28;20026;-75
2021/08/10 04:49:04;;;;;;;13.02;6.75;;;15.70;89.90;;;;;;4997590;28;20057;-73
2021/08/10 04:51:29;;;;;;;11.88;5.85;;;15.60;89.90;;;;;;5016595;28;20064;-73
2021/08/10 04:53:55;;;;;;;11.38;5.75;;;15.60;90.00;;;;;;5021277;28;20049;-72
2021/08/10 04:56:21;;;;;;;12.82;6.00;;;15.60;90.10;;;;;;5015607;28;20049;-72
2021/08/10 04:58:46;;;;;;;10.52;5.57;;;15.70;90.20;;;;;;5022360;28;20060;-72
2021/08/10 05:01:12;;;;;;;11.60;5.65;;;15.70;90.20;;;;;;5022432;28;20128;-77
2021/08/10 05:03:40;;;;;;;11.32;5.57;;;15.80;90.20;;;;;;5017861;28;20033;-75
2021/08/10 05:06:06;;;;;;;11.57;5.78;;;15.80;90.20;;;;;;5036714;28;20103;-72
2021/08/10 05:08:31;;;;;;;11.95;6.10;;;15.80;90.10;;;;;;5015886;28;20029;-73
2021/08/10 05:10:58;;;;;;;11.60;6.03;;;15.90;89.90;;;;;;5019354;28;20049;-72
2021/08/10 05:13:24;;;;;;;12.75;6.13;;;15.90;89.80;;;;;;5016763;28;20612;-72
2021/08/10 05:15:50;;;;;;;11.20;5.65;;;15.90;89.90;;;;;;5020245;28;20084;-76
2021/08/10 05:18:16;;;;;;;12.27;6.70;;;15.90;89.70;;;;;;5020859;28;20048;-74
2021/08/10 05:20:41;;;;;;;11.20;5.50;;;15.90;89.50;;;;;;5020607;28;20061;-75
2021/08/10 05:23:07;;;;;;;11.43;5.88;;;15.90;89.50;;;;;;5018926;28;20036;-73
2021/08/10 05:25:33;;;;;;;10.90;5.68;;;15.90;89.60;;;;;;5020479;28;20044;-73
2021/08/10 05:27:58;;;;;;;12.88;5.95;;;15.90;89.60;;;;;;5018804;28;20068;-72
2021/08/10 05:30:24;;;;;;;9.90;5.28;;;16.00;89.40;;;;;;5017543;28;20041;-72
2021/08/10 05:32:50;;;;;;;11.02;5.47;;;16.00;89.30;;;;;;5016543;28;20125;-72
2021/08/10 05:35:15;;;;;;;13.00;5.80;;;16.10;89.10;;;;;;5019100;28;20037;-76
2021/08/10 05:37:41;;;;;;;9.55;5.30;;;16.30;88.80;;;;;;5018208;28;20167;-74
2021/08/10 05:40:07;;;;;;;11.98;5.53;;;16.50;88.70;;;;;;5023394;28;20041;-71
2021/08/10 05:42:33;;;;;;;10.60;5.13;;;16.60;88.30;;;;;;5017109;28;20461;-72
2021/08/10 05:44:58;;;;;;;10.68;4.50;;;16.50;88.20;;;;;;5021973;28;20036;-71
2021/08/10 05:47:24;;;;;;;9.27;5.13;;;16.60;88.00;;;;;;5030436;28;20038;-73
2021/08/10 05:49:50;;;;;;;9.50;5.40;;;16.60;88.00;;;;;;5017937;28;20044;-73
2021/08/10 05:52:16;;;;;;;10.30;5.10;;;16.70;88.00;;;;;;5019653;28;20488;-72
2021/08/10 05:54:41;;;;;;;11.13;5.32;;;16.80;87.60;;;;;;5020055;28;20033;-74
2021/08/10 05:57:07;;;;;;;8.88;4.60;;;16.90;87.50;;;;;;5015952;28;20385;-76
2021/08/10 05:59:33;;;;;;;8.63;5.03;;;16.80;87.30;;;;;;5019836;28;20138;-72
2021/08/10 06:01:59;;;;;;;9.32;5.28;;;16.80;87.10;;;;;;5020305;28;20037;-73
2021/08/10 06:04:25;;;;;;;9.63;4.97;;;16.90;87.20;;;;;;5018285;28;20041;-75
2021/08/10 06:06:52;;;;;;;12.40;5.40;;;16.90;87.30;;;;;;5018973;28;20161;-74
2021/08/10 06:09:18;;;;;;;11.18;5.13;;;16.90;87.30;;;;;;5026562;28;20429;-72
2021/08/10 06:11:43;;;;;;;10.77;5.15;;;17.00;87.30;;;;;;5014420;28;20034;-72
2021/08/10 06:14:09;;;;;;;11.25;5.30;;;17.10;87.30;;;;;;5015366;28;20061;-75
2021/08/10 06:16:35;;;;;;;9.82;4.82;;;17.10;87.10;;;;;;5019379;28;20431;-74
2021/08/10 06:19:01;;;;;;;10.73;4.65;;;17.20;87.20;;;;;;5015847;28;20044;-73
2021/08/10 06:21:28;;;;;;;12.13;5.07;;;17.20;87.00;;;;;;5016117;28;20084;-74
2021/08/10 06:23:53;;;;;;;9.93;4.63;;;17.30;86.70;;;;;;5015568;28;20037;-73
2021/08/10 06:26:19;;;;;;;9.43;4.72;;;17.20;86.60;;;;;;5018400;28;20454;-72
2021/08/10 06:28:45;;;;;;;8.18;4.13;;;17.20;86.50;;;;;;5014185;28;20041;-73
2021/08/10 06:31:11;;;;;;;10.00;4.78;;;17.20;86.50;;;;;;5014290;28;20369;-73
2021/08/10 06:33:37;;;;;;;9.82;4.60;;;17.20;86.60;;;;;;5013992;28;20091;-73
2021/08/10 06:36:04;;;;;;;10.95;4.75;;;17.30;86.40;;;;;;5013349;28;21333;-73
2021/08/10 06:38:30;;;;;;;11.50;4.45;;;17.50;85.70;;;;;;5018747;28;20469;-73
2021/08/10 06:40:56;;;;;;;10.05;4.65;;;17.60;85.50;;;;;;5019817;28;20092;-69
2021/08/10 06:43:22;;;;;;;9.18;4.57;;;17.70;84.80;;;;;;5019385;28;20041;-78
2021/08/10 06:45:48;;;;;;;10.50;4.75;;;17.80;84.40;;;;;;5016982;28;20029;-70
2021/08/10 06:48:14;;;;;;;10.23;4.53;;;17.90;84.40;;;;;;5022182;28;20030;-70
2021/08/10 06:50:39;;;;;;;8.02;4.40;;;18.10;84.60;;;;;;5023483;28;20026;-73
2021/08/10 06:53:05;;;;;;;8.30;3.85;;;18.30;83.60;;;;;;5020412;28;20116;-76
2021/08/10 06:55:31;;;;;;;12.48;4.55;;;18.40;83.40;;;;;;5024998;28;20120;-70
2021/08/10 06:57:56;;;;;;;12.25;5.15;;;18.40;82.70;;;;;;5021390;28;20129;-70
2021/08/10 07:00:22;;;;;;;11.40;4.15;;;18.30;83.00;;;;;;5021391;28;20439;-72
2021/08/10 07:02:48;;;;;;;10.65;4.35;;;18.20;83.50;;;;;;5026313;28;20128;-70
2021/08/10 07:05:15;;;;;;;9.23;3.92;;;18.10;83.30;;;;;;5022014;28;20378;-71
2021/08/10 07:07:40;;;;;;;10.07;4.15;;;18.20;83.60;;;;;;5036839;28;20025;-75
2021/08/10 07:10:06;;;;;;;10.05;4.38;;;18.30;82.80;;;;;;5021682;28;20041;-72
2021/08/10 07:12:32;;;;;;;9.98;4.25;;;18.40;83.40;;;;;;5028273;28;20051;-71
2021/08/10 07:14:58;;;;;;;10.82;3.83;;;18.30;83.10;;;;;;5025834;28;20408;-70
2021/08/10 07:17:23;;;;;;;10.13;4.40;;;18.10;83.20;;;;;;5020731;28;20037;-70
2021/08/10 07:19:49;;;;;;;7.80;3.97;;;18.10;83.50;;;;;;5022796;28;20053;-71
2021/08/10 07:22:15;;;;;;;10.35;4.00;;;18.10;83.30;;;;;;5024509;28;20532;-70
2021/08/10 07:24:40;;;;;;;9.55;4.03;;;18.20;83.70;;;;;;5012969;28;20030;-76
2021/08/10 07:27:06;;;;;;;8.23;3.75;;;18.30;83.20;;;;;;4995021;28;20543;-79
2021/08/10 07:29:32;;;;;;;7.13;3.92;;;18.40;82.80;;;;;;5001745;28;20046;-71
2021/08/10 07:31:58;;;;;;;13.32;3.70;;;18.50;82.70;;;;;;5002307;28;20053;-74
2021/08/10 07:34:23;;;;;;;10.38;3.92;;;18.50;82.30;;;;;;5000947;28;20038;-72
2021/08/10 07:36:49;;;;;;;9.77;3.70;;;18.60;82.10;;;;;;5005753;28;20774;-71
2021/08/10 07:39:15;;;;;;;8.93;3.88;;;18.70;82.20;;;;;;5006598;28;20092;-72
2021/08/10 07:41:40;;;;;;;9.85;3.60;;;18.80;82.00;;;;;;5004480;28;20039;-71
2021/08/10 07:44:06;;;;;;;9.20;3.50;;;18.90;81.30;;;;;;5012469;28;20037;-70
2021/08/10 07:46:32;;;;;;;10.40;4.15;;;18.90;80.60;;;;;;5009512;28;20061;-75
2021/08/10 07:48:58;;;;;;;8.50;3.47;;;19.00;81.50;;;;;;5007241;28;20084;-71
2021/08/10 07:51:23;;;;;;;8.65;3.70;;;19.00;80.90;;;;;;5009173;28;20044;-71
2021/08/10 07:53:49;;;;;;;8.02;3.72;;;19.10;80.60;;;;;;5012243;28;20037;-71
2021/08/10 07:56:15;;;;;;;9.50;4.05;;;19.20;80.00;;;;;;5001297;28;20504;-70
2021/08/10 07:58:41;;;;;;;8.00;3.90;;;19.20;79.70;;;;;;5004290;28;20061;-71
2021/08/10 08:01:07;;;;;;;9.00;3.88;;;19.20;80.10;;;;;;5008161;28;20042;-70
2021/08/10 08:03:33;;;;;;;10.60;3.83;;;19.20;80.10;;;;;;5011639;28;20057;-69
2021/08/10 08:05:58;;;;;;;8.07;3.67;;;19.20;79.90;;;;;;4998069;28;20034;-70
2021/08/10 08:08:27;;;;;;;9.52;3.70;;;19.10;80.00;;;;;;5005969;28;20042;-70
2021/08/10 08:10:53;;;;;;;10.88;3.63;;;19.30;79.50;;;;;;5014676;28;20088;-68
2021/08/10 08:13:19;;;;;;;8.07;3.88;;;19.50;79.10;;;;;;5012566;28;20022;-71
2021/08/10 08:15:45;;;;;;;8.05;3.63;;;19.70;79.40;;;;;;5010373;28;20038;-69
2021/08/10 08:18:11;;;;;;;7.82;3.42;;;20.00;78.10;;;;;;4998216;28;20034;-68
2021/08/10 08:20:36;;;;;;;7.80;3.33;;;20.10;77.60;;;;;;5006041;28;20064;-69
2021/08/10 08:23:02;;;;;;;8.15;3.33;;;20.20;77.50;;;;;;5005883;28;20034;-71
2021/08/10 08:25:28;;;;;;;6.78;3.55;;;20.10;77.30;;;;;;5010422;28;20540;-69
2021/08/10 08:27:54;;;;;;;7.35;3.63;;;20.20;77.60;;;;;;4994472;28;20038;-71
2021/08/10 08:30:19;;;;;;;8.43;3.88;;;20.30;78.20;;;;;;5004911;28;20097;-69
2021/08/10 08:32:45;;;;;;;10.30;4.40;;;20.30;78.30;;;;;;5003598;28;20038;-72
2021/08/10 08:35:11;;;;;;;6.90;3.70;;;20.30;78.50;;;;;;5004459;28;20461;-69
2021/08/10 08:37:37;;;;;;;7.32;4.10;;;20.10;78.90;;;;;;4998765;28;20363;-69
2021/08/10 08:40:05;;;;;;;8.73;4.13;;;19.80;79.00;;;;;;4992540;28;20081;-70
2021/08/10 08:42:32;;;;;;;12.05;4.13;;;19.60;79.80;;;;;;5001398;28;20029;-70
2021/08/10 08:44:57;;;;;;;11.10;3.90;;;19.50;79.90;;;;;;5000518;28;20396;-70
2021/08/10 08:47:23;;;;;;;7.82;3.90;;;19.40;81.00;;;;;;5001905;28;20041;-71
2021/08/10 08:49:51;;;;;;;7.70;4.30;;;19.30;81.10;;;;;;5004330;28;20079;-69
2021/08/10 08:52:18;;;;;;;9.10;4.13;;;19.10;81.20;;;;;;5002728;28;20138;-69
2021/08/10 08:54:44;;;;;;;10.50;4.43;;;19.10;81.40;;;;;;5001671;28;20533;-71
2021/08/10 08:57:10;;;;;;;9.63;4.15;;;19.00;81.50;;;;;;4998227;28;20125;-69
2021/08/10 08:59:41;;;;;;;9.45;4.47;;;18.90;82.00;;;;;;4996796;28;20389;-72
2021/08/10 09:02:17;;;;;;;10.65;4.68;;;19.00;82.20;;;;;;4993731;28;20395;-68
2021/08/10 09:04:44;;;;;;;7.95;4.40;;;19.00;82.70;;;;;;5007413;28;20089;-68
2021/08/10 09:07:10;;;;;;;12.40;5.15;;;19.10;82.80;;;;;;5008338;28;20393;-69
2021/08/10 09:09:36;;;;;;;10.23;5.18;;;19.20;81.80;;;;;;5008941;28;20036;-69
2021/08/10 09:12:13;;;;;;;9.07;4.85;;;19.30;81.90;;;;;;4995187;28;20542;-70
2021/08/10 09:14:49;;;;;;;9.77;5.25;;;19.40;81.60;;;;;;5001055;28;20085;-69
2021/08/10 09:17:17;;;;;;;10.80;5.68;;;19.50;81.10;;;;;;5002035;28;20045;-69
2021/08/10 09:19:47;;;;;;;11.07;5.00;;;19.50;81.60;;;;;;4996034;28;20089;-68
2021/08/10 09:22:34;;;;;;;10.50;5.15;;;19.50;80.80;;;;;;5013530;28;20026;-68
2021/08/10 09:25:05;;;;;;;8.85;4.88;;;19.40;81.80;;;;;;4996461;28;20034;-71
2021/08/10 09:27:39;;;;;;;9.70;4.97;;;19.50;81.50;;;;;;5004757;28;20359;-69
2021/08/10 09:30:25;;;;;;;8.95;5.20;;;19.50;81.40;;;;;;4999509;28;20121;-70
2021/08/10 09:33:00;;;;;;;9.75;5.20;;;19.60;80.60;;;;;;5002257;28;20033;-69
2021/08/10 09:35:38;;;;;;;8.80;4.53;;;19.60;80.80;;;;;;4993144;28;20034;-69
2021/08/10 09:38:05;;;;;;;7.93;4.43;;;19.60;80.30;;;;;;4999053;28;20039;-70
2021/08/10 09:40:37;;;;;;;11.10;4.60;;;19.50;80.40;;;;;;4996843;28;20064;-69
2021/08/10 09:43:32;;;;;;;8.98;4.22;;;19.20;80.60;;;;;;4997240;28;20049;-70
2021/08/10 09:46:16;;;;;;;9.00;4.85;;;19.00;81.60;;;;;;5017365;28;21178;-74
2021/08/10 09:48:53;;;;;;;9.05;4.82;;;18.80;82.20;;;;;;5021889;28;20787;-69
2021/08/10 09:51:27;;;;;;;10.30;5.20;;;18.60;83.40;;;;;;5019715;28;20191;-69
2021/08/10 09:54:04;;;;;;;10.85;5.43;;;18.60;83.50;;;;;;5021816;28;20037;-69
2021/08/10 09:56:52;;;;;;;9.25;5.45;;;18.60;83.50;;;;;;5013395;28;20030;-70
2021/08/10 09:59:20;;;;;;;8.40;5.15;;;18.50;83.80;;;;;;5016999;28;20107;-69
2021/08/10 10:01:49;;;;;;;10.85;6.05;;;18.60;84.10;;;;;;5016635;28;20053;-71
2021/08/10 10:04:29;;;;;;;10.40;5.25;;;18.50;84.20;;;;;;5020857;28;20124;-73
2021/08/10 10:06:58;;;;;;;9.98;5.32;;;18.30;84.90;;;;;;5020111;28;20068;-69
2021/08/10 10:09:25;;;;;;;10.82;6.10;;;18.30;85.10;;;;;;5010213;28;20045;-69
2021/08/10 10:11:53;;;;;;;8.93;4.72;;;18.30;85.40;;;;;;5014189;28;20033;-69
2021/08/10 10:14:21;;;;;;;9.05;4.50;;;18.30;85.10;;;;;;5018320;28;20029;-69
2021/08/10 10:16:49;;;;;;;8.98;4.50;;;18.30;85.10;;;;;;5011354;28;20092;-70
2021/08/10 10:19:16;;;;;;;8.45;4.20;;;18.30;85.10;;;;;;5019477;28;20037;-69
2021/08/10 10:22:04;;;;;;;8.40;4.95;;;18.30;85.00;;;;;;5017865;28;20042;-68
2021/08/10 10:24:37;;;;;;;9.48;4.50;;;18.30;85.30;;;;;;5017372;28;20548;-72
2021/08/10 10:27:05;;;;;;;7.90;4.70;;;18.40;84.90;;;;;;5020504;28;20540;-69
2021/08/10 10:29:32;;;;;;;9.02;4.70;;;18.50;85.30;;;;;;5022861;28;20026;-68
2021/08/10 10:31:58;;;;;;;8.50;4.55;;;18.70;84.70;;;;;;5019452;28;20041;-69
2021/08/10 10:34:25;;;;;;;7.82;4.75;;;19.00;84.60;;;;;;5027158;28;20024;-68
2021/08/10 10:36:51;;;;;;;8.63;3.90;;;19.40;83.60;;;;;;5022370;28;20033;-69
2021/08/10 10:39:26;;;;;;;8.27;4.05;;;19.70;81.90;;;;;;5026945;28;20036;-68
2021/08/10 10:41:55;;;;;;;10.57;4.10;;;20.10;81.40;;;;;;5021404;28;20534;-69
2021/08/10 10:44:47;;;;;;;7.72;4.20;;;20.30;80.50;;;;;;5024817;28;20480;-69
2021/08/10 10:47:37;;;;;;;8.60;4.07;;;20.40;78.60;;;;;;5018983;28;20041;-69
2021/08/10 10:50:05;;;;;;;9.32;3.95;;;20.20;78.50;;;;;;5022554;28;20040;-72
2021/08/10 10:52:34;;;;;;;9.18;4.28;;;20.20;78.80;;;;;;5024267;28;20041;-69
2021/08/10 10:55:05;;;;;;;8.65;4.22;;;20.10;78.60;;;;;;5024294;28;20477;-70
2021/08/10 10:57:33;;;;;;;9.18;4.07;;;20.00;79.50;;;;;;5027269;28;20052;-68
2021/08/10 11:00:20;;;;;;;10.05;5.95;;;19.80;79.80;;;;;;5021317;28;20072;-69
2021/08/10 11:03:12;;;;;;;9.15;5.88;;;19.70;81.40;;;;;;5021345;28;20120;-70
2021/08/10 11:05:38;;;;;;;8.73;5.65;;;19.70;80.80;;;;;;5021839;28;20052;-68
2021/08/10 11:08:06;;;;;;;12.82;5.63;;;19.90;80.20;;;;;;5022586;28;20025;-72
2021/08/10 11:10:45;;;;;;;9.85;5.82;;;20.00;79.80;;;;;;5022155;28;20034;-69
2021/08/10 11:13:16;;;;;;;13.85;7.25;;;20.00;80.80;;;;;;5016040;28;20028;-69
2021/08/10 11:15:45;;;;;;;10.43;6.47;;;20.20;80.30;;;;;;5024764;28;20037;-69
2021/08/10 11:18:11;;;;;;;10.02;5.80;;;20.00;79.70;;;;;;5015843;28;20040;-70
2021/08/10 11:20:37;;;;;;;9.77;5.35;;;19.80;78.30;;;;;;5022597;28;20392;-68
2021/08/10 11:23:24;;;;;;;9.15;4.82;;;19.80;79.00;;;;;;5016987;28;20125;-71
2021/08/10 11:26:14;;;;;;;7.38;4.00;;;19.60;80.30;;;;;;5020879;28;20041;-71
2021/08/10 11:28:51;;;;;;;6.32;3.63;;;19.60;81.00;;;;;;5023815;28;20637;-69
2021/08/10 11:31:34;;;;;;;6.53;3.55;;;19.50;81.40;;;;;;5020036;28;20033;-68
2021/08/10 11:33:59;;;;;;;7.05;3.80;;;19.20;82.30;;;;;;5017610;28;20271;-70
2021/08/10 11:36:26;;;;;;;6.80;3.75;;;18.90;83.20;;;;;;5032227;28;20489;-68
2021/08/10 11:38:51;;;;;;;7.70;4.03;;;18.70;84.10;;;;;;5020966;28;20025;-68
2021/08/10 11:41:20;;;;;;;9.07;4.47;;;18.60;85.10;;;;;;5019656;28;20589;-68
2021/08/10 11:43:52;;;;;;;7.65;4.68;;;18.40;85.60;;;;;;5024388;28;20029;-69
2021/08/10 11:46:36;;;;;;;6.68;4.50;;;18.60;85.80;;;;;;5021679;28;20042;-68
2021/08/10 11:49:05;;;;;;;10.77;5.75;;;18.90;85.90;;;;;;5022354;28;20034;-70
2021/08/10 11:51:42;;;;;;;8.43;5.97;;;19.10;84.70;;;;;;5019655;28;20462;-69
2021/08/10 11:54:18;;;;;;;9.48;5.72;;;19.60;85.00;;;;;;5021055;28;20029;-72
2021/08/10 11:56:49;;;;;;;7.82;5.78;;;20.20;84.10;;;;;;5023174;28;20018;-68
2021/08/10 11:59:21;;;;;;;9.05;5.18;;;20.50;81.10;;;;;;5025416;28;20492;-69
2021/08/10 12:01:47;;;;;;;7.00;4.95;;;20.60;80.20;;;;;;5025378;28;20067;-70
2021/08/10 12:04:16;;;;;;;6.00;3.42;;;20.30;80.10;;;;;;5012086;28;20038;-68
2021/08/10 12:06:43;;;;;;;6.60;3.90;;;20.30;79.70;;;;;;5020078;28;20027;-68
2021/08/10 12:09:18;;;;;;;6.50;3.92;;;20.30;80.80;;;;;;5025144;28;20371;-68
2021/08/10 12:11:47;;;;;;;6.55;3.67;;;20.30;80.70;;;;;;5008181;28;20121;-68
2021/08/10 12:14:22;;;;;;;5.43;3.03;;;20.60;80.80;;;;;;5003495;28;20027;-68
2021/08/10 12:17:03;;;;;;;6.85;3.22;;;20.70;77.40;;;;;;5011929;28;20040;-68
2021/08/10 12:19:30;;;;;;;4.70;2.80;;;20.90;80.20;;;;;;5020353;28;20033;-70
2021/08/10 12:21:56;;;;;;;7.70;3.15;;;21.30;78.10;;;;;;5039389;28;20041;-68
2021/08/10 12:24:26;;;;;;;6.00;3.25;;;21.50;74.50;;;;;;5031140;28;20385;-68
2021/08/10 12:26:52;;;;;;;5.90;2.70;;;21.50;74.00;;;;;;5047767;28;20087;-69
2021/08/10 12:29:18;;;;;;;5.60;2.92;;;21.30;74.20;;;;;;5028045;28;20038;-71
2021/08/10 12:31:45;;;;;;;5.60;3.03;;;21.20;73.90;;;;;;5030664;28;20032;-69
2021/08/10 12:34:10;;;;;;;5.68;2.95;;;21.10;73.70;;;;;;5022723;28;20397;-69
2021/08/10 12:36:52;;;;;;;5.05;2.75;;;21.20;74.90;;;;;;5016350;28;20029;-69
2021/08/10 12:39:19;;;;;;;5.78;3.33;;;21.30;74.20;;;;;;5016406;28;20532;-69
2021/08/10 12:41:46;;;;;;;8.57;3.55;;;21.10;74.70;;;;;;5022667;28;20100;-70
2021/08/10 12:44:12;;;;;;;6.30;3.40;;;21.50;74.50;;;;;;5029850;28;20060;-74
2021/08/10 12:46:40;;;;;;;6.30;2.78;;;21.50;72.70;;;;;;5019420;28;20092;-70
2021/08/10 12:49:07;;;;;;;6.05;2.60;;;21.40;73.30;;;;;;5025104;28;20470;-69
2021/08/10 12:51:53;;;;;;;6.35;3.03;;;21.60;73.80;;;;;;5020925;28;20507;-69